sensor_id;sensor_type;location;lat;lon;timestamp;pressure;altitude;pressure_sealevel;temperature;humidity
73220;BME280;61434;43.538;-5.688;2023-02-10T00:01:06;103511.13;;;9.43;59.12
73220;BME280;61434;43.538;-5.688;2023-02-10T00:03:32;103515.22;;;9.78;58.91
73220;BME280;61434;43.538;-5.688;2023-02-10T00:05:58;103509.44;;;9.15;60.01
73220;BME280;61434;43.538;-5.688;2023-02-10T00:08:24;103511.63;;;9.54;59.54
73220;BME280;61434;43.538;-5.688;2023-02-10T00:10:49;103512.75;;;9.72;58.27
73220;BME280;61434;43.538;-5.688;2023-02-10T00:13:15;103505.47;;;9.50;59.46
73220;BME280;61434;43.538;-5.688;2023-02-10T00:15:40;103512.13;;;9.40;60.29
73220;BME280;61434;43.538;-5.688;2023-02-10T00:18:06;103508.44;;;9.43;59.35
73220;BME280;61434;43.538;-5.688;2023-02-10T00:20:32;103502.78;;;9.25;60.00
73220;BME280;61434;43.538;-5.688;2023-02-10T00:22:57;103505.19;;;9.33;60.16
73220;BME280;61434;43.538;-5.688;2023-02-10T00:25:23;103505.75;;;9.43;59.35
73220;BME280;61434;43.538;-5.688;2023-02-10T00:27:48;103510.38;;;9.39;59.67
73220;BME280;61434;43.538;-5.688;2023-02-10T00:30:14;103518.19;;;9.70;58.95
73220;BME280;61434;43.538;-5.688;2023-02-10T00:32:39;103515.47;;;9.22;59.54
73220;BME280;61434;43.538;-5.688;2023-02-10T00:35:07;103513.81;;;9.18;60.30
73220;BME280;61434;43.538;-5.688;2023-02-10T00:37:32;103507.63;;;8.89;61.02
73220;BME280;61434;43.538;-5.688;2023-02-10T00:39:58;103503.91;;;9.20;59.94
73220;BME280;61434;43.538;-5.688;2023-02-10T00:42:23;103507.16;;;9.03;60.98
73220;BME280;61434;43.538;-5.688;2023-02-10T00:44:49;103491.84;;;9.55;59.35
73220;BME280;61434;43.538;-5.688;2023-02-10T00:47:16;103508.91;;;9.04;60.56
73220;BME280;61434;43.538;-5.688;2023-02-10T00:49:41;103504.88;;;8.91;61.15
73220;BME280;61434;43.538;-5.688;2023-02-10T00:52:07;103506.22;;;9.04;60.50
73220;BME280;61434;43.538;-5.688;2023-02-10T00:54:32;103506.78;;;9.14;59.93
73220;BME280;61434;43.538;-5.688;2023-02-10T00:56:58;103504.16;;;9.12;60.19
73220;BME280;61434;43.538;-5.688;2023-02-10T00:59:23;103495.28;;;8.84;60.88
73220;BME280;61434;43.538;-5.688;2023-02-10T01:01:49;103503.75;;;8.98;60.67
73220;BME280;61434;43.538;-5.688;2023-02-10T01:04:16;103496.81;;;9.42;59.21
73220;BME280;61434;43.538;-5.688;2023-02-10T01:06:41;103501.88;;;9.00;60.41
73220;BME280;61434;43.538;-5.688;2023-02-10T01:09:07;103493.09;;;8.68;61.36
73220;BME280;61434;43.538;-5.688;2023-02-10T01:11:33;103487.31;;;8.54;61.52
73220;BME280;61434;43.538;-5.688;2023-02-10T01:13:58;103491.44;;;8.91;61.55
73220;BME280;61434;43.538;-5.688;2023-02-10T01:16:24;103497.13;;;9.08;60.69
73220;BME280;61434;43.538;-5.688;2023-02-10T01:18:49;103482.50;;;8.90;61.18
73220;BME280;61434;43.538;-5.688;2023-02-10T01:21:18;103487.28;;;8.81;61.86
73220;BME280;61434;43.538;-5.688;2023-02-10T01:23:45;103484.38;;;9.13;60.32
73220;BME280;61434;43.538;-5.688;2023-02-10T01:26:11;103488.97;;;8.85;61.41
73220;BME280;61434;43.538;-5.688;2023-02-10T01:28:40;103485.25;;;8.89;60.77
73220;BME280;61434;43.538;-5.688;2023-02-10T01:31:07;103482.66;;;8.86;60.75
73220;BME280;61434;43.538;-5.688;2023-02-10T01:33:33;103474.81;;;9.05;59.99
73220;BME280;61434;43.538;-5.688;2023-02-10T01:36:03;103474.31;;;9.20;59.43
73220;BME280;61434;43.538;-5.688;2023-02-10T01:38:29;103466.06;;;9.24;58.53
73220;BME280;61434;43.538;-5.688;2023-02-10T01:40:55;103472.53;;;9.19;59.17
73220;BME280;61434;43.538;-5.688;2023-02-10T01:43:20;103467.59;;;8.82;59.20
73220;BME280;61434;43.538;-5.688;2023-02-10T01:45:46;103472.97;;;8.80;60.32
73220;BME280;61434;43.538;-5.688;2023-02-10T01:48:12;103469.13;;;8.89;59.72
73220;BME280;61434;43.538;-5.688;2023-02-10T01:50:46;103476.69;;;8.78;60.67
73220;BME280;61434;43.538;-5.688;2023-02-10T01:53:13;103487.31;;;9.07;58.67
73220;BME280;61434;43.538;-5.688;2023-02-10T01:55:41;103485.50;;;8.81;58.85
73220;BME280;61434;43.538;-5.688;2023-02-10T01:58:10;103491.22;;;8.70;60.44
73220;BME280;61434;43.538;-5.688;2023-02-10T02:00:37;103488.94;;;8.86;60.70
73220;BME280;61434;43.538;-5.688;2023-02-10T02:03:04;103495.81;;;8.67;60.37
73220;BME280;61434;43.538;-5.688;2023-02-10T02:05:35;103486.88;;;8.66;61.02
73220;BME280;61434;43.538;-5.688;2023-02-10T02:08:05;103494.22;;;8.61;60.82
73220;BME280;61434;43.538;-5.688;2023-02-10T02:10:58;103501.97;;;8.42;61.52
73220;BME280;61434;43.538;-5.688;2023-02-10T02:14:10;103495.34;;;8.81;61.19
73220;BME280;61434;43.538;-5.688;2023-02-10T02:18:58;103500.38;;;8.37;61.84
73220;BME280;61434;43.538;-5.688;2023-02-10T02:21:33;103496.00;;;8.33;62.72
73220;BME280;61434;43.538;-5.688;2023-02-10T02:32:38;103495.25;;;8.57;60.03
73220;BME280;61434;43.538;-5.688;2023-02-10T02:35:11;103497.72;;;8.35;61.06
73220;BME280;61434;43.538;-5.688;2023-02-10T02:37:45;103491.56;;;8.32;61.01
73220;BME280;61434;43.538;-5.688;2023-02-10T02:40:13;103494.50;;;8.24;61.43
73220;BME280;61434;43.538;-5.688;2023-02-10T02:42:39;103496.28;;;8.23;61.62
73220;BME280;61434;43.538;-5.688;2023-02-10T02:45:08;103501.03;;;8.15;62.83
73220;BME280;61434;43.538;-5.688;2023-02-10T02:58:56;103489.47;;;8.69;60.94
73220;BME280;61434;43.538;-5.688;2023-02-10T03:01:33;103488.00;;;8.87;60.14
73220;BME280;61434;43.538;-5.688;2023-02-10T03:04:02;103484.09;;;8.69;59.86
73220;BME280;61434;43.538;-5.688;2023-02-10T03:06:28;103487.03;;;8.62;60.17
73220;BME280;61434;43.538;-5.688;2023-02-10T03:08:55;103484.19;;;8.66;60.24
73220;BME280;61434;43.538;-5.688;2023-02-10T03:11:21;103478.88;;;8.65;59.77
73220;BME280;61434;43.538;-5.688;2023-02-10T03:13:46;103479.91;;;8.61;60.25
73220;BME280;61434;43.538;-5.688;2023-02-10T03:16:12;103463.16;;;8.53;60.38
73220;BME280;61434;43.538;-5.688;2023-02-10T03:18:37;103465.56;;;8.32;61.78
73220;BME280;61434;43.538;-5.688;2023-02-10T03:21:03;103464.03;;;8.25;61.91
73220;BME280;61434;43.538;-5.688;2023-02-10T03:23:29;103463.41;;;7.87;63.13
73220;BME280;61434;43.538;-5.688;2023-02-10T03:25:57;103457.16;;;7.87;63.61
73220;BME280;61434;43.538;-5.688;2023-02-10T03:28:23;103473.44;;;8.10;62.68
73220;BME280;61434;43.538;-5.688;2023-02-10T03:30:49;103462.31;;;8.22;62.19
73220;BME280;61434;43.538;-5.688;2023-02-10T03:33:15;103477.00;;;8.40;62.28
73220;BME280;61434;43.538;-5.688;2023-02-10T03:35:42;103464.28;;;8.45;61.54
73220;BME280;61434;43.538;-5.688;2023-02-10T03:38:08;103469.97;;;8.36;61.59
73220;BME280;61434;43.538;-5.688;2023-02-10T03:40:34;103465.84;;;8.25;62.28
73220;BME280;61434;43.538;-5.688;2023-02-10T03:42:59;103468.41;;;8.28;61.98
73220;BME280;61434;43.538;-5.688;2023-02-10T03:45:25;103463.63;;;8.39;61.99
73220;BME280;61434;43.538;-5.688;2023-02-10T03:47:50;103471.94;;;8.30;62.72
73220;BME280;61434;43.538;-5.688;2023-02-10T03:50:15;103470.41;;;8.21;61.73
73220;BME280;61434;43.538;-5.688;2023-02-10T03:52:41;103476.00;;;8.13;61.40
73220;BME280;61434;43.538;-5.688;2023-02-10T03:55:07;103470.28;;;8.26;61.98
73220;BME280;61434;43.538;-5.688;2023-02-10T03:57:32;103470.69;;;8.41;60.96
73220;BME280;61434;43.538;-5.688;2023-02-10T03:59:58;103478.25;;;7.99;62.14
73220;BME280;61434;43.538;-5.688;2023-02-10T04:02:24;103484.00;;;8.16;62.17
73220;BME280;61434;43.538;-5.688;2023-02-10T04:04:49;103483.06;;;8.17;62.14
73220;BME280;61434;43.538;-5.688;2023-02-10T04:07:15;103494.00;;;7.80;62.84
73220;BME280;61434;43.538;-5.688;2023-02-10T04:09:40;103484.88;;;8.17;62.99
73220;BME280;61434;43.538;-5.688;2023-02-10T04:12:06;103485.78;;;8.16;61.83
73220;BME280;61434;43.538;-5.688;2023-02-10T04:14:32;103489.63;;;8.37;61.19
73220;BME280;61434;43.538;-5.688;2023-02-10T04:16:57;103486.50;;;8.51;61.59
73220;BME280;61434;43.538;-5.688;2023-02-10T04:19:23;103485.41;;;8.28;61.66
73220;BME280;61434;43.538;-5.688;2023-02-10T04:21:48;103482.22;;;8.15;61.46
73220;BME280;61434;43.538;-5.688;2023-02-10T04:24:14;103489.44;;;7.84;63.07
73220;BME280;61434;43.538;-5.688;2023-02-10T04:26:39;103485.22;;;8.05;62.49
73220;BME280;61434;43.538;-5.688;2023-02-10T04:29:05;103494.25;;;7.72;63.02
73220;BME280;61434;43.538;-5.688;2023-02-10T04:31:30;103493.66;;;7.92;62.81
73220;BME280;61434;43.538;-5.688;2023-02-10T04:33:56;103489.44;;;7.84;62.09
73220;BME280;61434;43.538;-5.688;2023-02-10T04:36:21;103493.81;;;7.88;62.30
73220;BME280;61434;43.538;-5.688;2023-02-10T04:38:47;103492.81;;;7.90;62.27
73220;BME280;61434;43.538;-5.688;2023-02-10T04:41:12;103491.13;;;7.88;61.90
73220;BME280;61434;43.538;-5.688;2023-02-10T04:43:37;103477.34;;;8.00;61.40
73220;BME280;61434;43.538;-5.688;2023-02-10T04:46:03;103483.94;;;8.18;61.75
73220;BME280;61434;43.538;-5.688;2023-02-10T04:48:29;103481.78;;;8.01;62.15
73220;BME280;61434;43.538;-5.688;2023-02-10T04:50:55;103493.69;;;8.50;61.14
73220;BME280;61434;43.538;-5.688;2023-02-10T04:53:20;103490.09;;;7.92;62.08
73220;BME280;61434;43.538;-5.688;2023-02-10T04:55:46;103488.75;;;8.07;61.87
73220;BME280;61434;43.538;-5.688;2023-02-10T04:58:12;103493.41;;;7.70;63.31
73220;BME280;61434;43.538;-5.688;2023-02-10T05:00:37;103502.84;;;7.84;62.51
73220;BME280;61434;43.538;-5.688;2023-02-10T05:03:03;103495.09;;;8.04;61.63
73220;BME280;61434;43.538;-5.688;2023-02-10T05:05:28;103502.84;;;7.84;62.46
73220;BME280;61434;43.538;-5.688;2023-02-10T05:07:54;103495.22;;;8.00;62.07
73220;BME280;61434;43.538;-5.688;2023-02-10T05:10:20;103510.94;;;7.51;63.54
73220;BME280;61434;43.538;-5.688;2023-02-10T05:12:46;103509.75;;;7.61;63.76
73220;BME280;61434;43.538;-5.688;2023-02-10T05:15:12;103505.19;;;7.96;62.02
73220;BME280;61434;43.538;-5.688;2023-02-10T05:17:39;103508.63;;;8.01;62.03
73220;BME280;61434;43.538;-5.688;2023-02-10T05:20:05;103503.84;;;7.81;62.39
73220;BME280;61434;43.538;-5.688;2023-02-10T05:22:30;103505.13;;;7.97;62.16
73220;BME280;61434;43.538;-5.688;2023-02-10T05:24:56;103500.13;;;7.54;63.20
73220;BME280;61434;43.538;-5.688;2023-02-10T05:27:25;103506.63;;;7.45;63.38
73220;BME280;61434;43.538;-5.688;2023-02-10T05:29:51;103505.22;;;7.94;62.55
73220;BME280;61434;43.538;-5.688;2023-02-10T05:32:16;103503.91;;;7.78;62.65
73220;BME280;61434;43.538;-5.688;2023-02-10T05:34:42;103497.75;;;7.75;62.34
73220;BME280;61434;43.538;-5.688;2023-02-10T05:37:07;103509.41;;;7.74;63.10
73220;BME280;61434;43.538;-5.688;2023-02-10T05:39:34;103501.81;;;7.58;63.36
73220;BME280;61434;43.538;-5.688;2023-02-10T05:42:00;103507.53;;;7.77;63.47
73220;BME280;61434;43.538;-5.688;2023-02-10T05:44:26;103523.41;;;7.54;62.50
73220;BME280;61434;43.538;-5.688;2023-02-10T05:46:52;103515.09;;;7.63;63.21
73220;BME280;61434;43.538;-5.688;2023-02-10T05:49:18;103495.84;;;7.47;62.34
73220;BME280;61434;43.538;-5.688;2023-02-10T05:51:44;103504.69;;;7.18;64.00
73220;BME280;61434;43.538;-5.688;2023-02-10T05:54:10;103503.81;;;7.17;64.08
73220;BME280;61434;43.538;-5.688;2023-02-10T05:56:36;103501.25;;;7.45;63.62
73220;BME280;61434;43.538;-5.688;2023-02-10T05:59:02;103507.09;;;7.29;63.39
73220;BME280;61434;43.538;-5.688;2023-02-10T06:01:28;103508.41;;;7.12;63.89
73220;BME280;61434;43.538;-5.688;2023-02-10T06:03:53;103512.59;;;7.24;63.96
73220;BME280;61434;43.538;-5.688;2023-02-10T06:06:19;103500.69;;;7.67;62.58
73220;BME280;61434;43.538;-5.688;2023-02-10T06:08:44;103494.94;;;8.38;62.84
73220;BME280;61434;43.538;-5.688;2023-02-10T06:11:10;103491.09;;;8.17;62.66
73220;BME280;61434;43.538;-5.688;2023-02-10T06:13:37;103488.25;;;8.52;63.34
73220;BME280;61434;43.538;-5.688;2023-02-10T06:16:04;103490.63;;;8.33;61.09
73220;BME280;61434;43.538;-5.688;2023-02-10T06:18:30;103490.19;;;8.48;63.00
73220;BME280;61434;43.538;-5.688;2023-02-10T06:20:56;103484.75;;;7.92;61.21
73220;BME280;61434;43.538;-5.688;2023-02-10T06:23:22;103485.03;;;8.95;60.46
73220;BME280;61434;43.538;-5.688;2023-02-10T06:25:48;103483.56;;;9.61;62.49
73220;BME280;61434;43.538;-5.688;2023-02-10T06:28:14;103480.69;;;8.91;59.46
73220;BME280;61434;43.538;-5.688;2023-02-10T06:30:41;103480.09;;;9.08;59.50
73220;BME280;61434;43.538;-5.688;2023-02-10T06:33:07;103484.88;;;8.99;62.20
73220;BME280;61434;43.538;-5.688;2023-02-10T06:35:32;103492.31;;;7.78;60.92
73220;BME280;61434;43.538;-5.688;2023-02-10T06:37:58;103498.97;;;7.94;60.71
73220;BME280;61434;43.538;-5.688;2023-02-10T06:40:23;103491.69;;;7.68;61.17
73220;BME280;61434;43.538;-5.688;2023-02-10T06:42:49;103491.66;;;7.69;61.67
73220;BME280;61434;43.538;-5.688;2023-02-10T06:45:14;103496.56;;;7.85;61.54
73220;BME280;61434;43.538;-5.688;2023-02-10T06:47:40;103490.63;;;7.74;61.10
73220;BME280;61434;43.538;-5.688;2023-02-10T06:50:06;103496.81;;;7.77;61.81
73220;BME280;61434;43.538;-5.688;2023-02-10T06:52:32;103503.72;;;7.84;61.62
73220;BME280;61434;43.538;-5.688;2023-02-10T06:55:00;103494.00;;;8.11;61.25
73220;BME280;61434;43.538;-5.688;2023-02-10T06:57:26;103500.13;;;7.85;60.76
73220;BME280;61434;43.538;-5.688;2023-02-10T06:59:51;103506.91;;;7.67;61.41
73220;BME280;61434;43.538;-5.688;2023-02-10T07:02:18;103505.13;;;7.66;61.03
73220;BME280;61434;43.538;-5.688;2023-02-10T07:04:43;103512.28;;;7.67;61.04
73220;BME280;61434;43.538;-5.688;2023-02-10T07:07:09;103506.69;;;7.75;60.98
73220;BME280;61434;43.538;-5.688;2023-02-10T07:09:34;103503.56;;;7.27;62.37
73220;BME280;61434;43.538;-5.688;2023-02-10T07:12:00;103512.97;;;7.09;63.94
73220;BME280;61434;43.538;-5.688;2023-02-10T07:14:25;103511.38;;;7.36;63.40
73220;BME280;61434;43.538;-5.688;2023-02-10T07:16:51;103516.28;;;7.53;62.75
73220;BME280;61434;43.538;-5.688;2023-02-10T07:19:16;103509.13;;;7.53;61.95
73220;BME280;61434;43.538;-5.688;2023-02-10T07:21:42;103502.16;;;7.46;62.40
73220;BME280;61434;43.538;-5.688;2023-02-10T07:24:07;103505.94;;;7.39;62.12
73220;BME280;61434;43.538;-5.688;2023-02-10T07:26:33;103513.84;;;7.76;62.14
73220;BME280;61434;43.538;-5.688;2023-02-10T07:28:59;103510.03;;;7.52;61.22
73220;BME280;61434;43.538;-5.688;2023-02-10T07:31:24;103515.44;;;7.82;60.82
73220;BME280;61434;43.538;-5.688;2023-02-10T07:33:50;103519.16;;;7.45;61.39
73220;BME280;61434;43.538;-5.688;2023-02-10T07:36:15;103520.66;;;7.23;62.79
73220;BME280;61434;43.538;-5.688;2023-02-10T07:38:41;103517.28;;;7.49;62.21
73220;BME280;61434;43.538;-5.688;2023-02-10T07:41:07;103527.25;;;7.43;62.42
73220;BME280;61434;43.538;-5.688;2023-02-10T07:43:33;103527.75;;;7.25;62.92
73220;BME280;61434;43.538;-5.688;2023-02-10T07:45:58;103528.38;;;7.35;61.70
73220;BME280;61434;43.538;-5.688;2023-02-10T07:48:24;103529.78;;;7.15;63.02
73220;BME280;61434;43.538;-5.688;2023-02-10T07:50:50;103530.13;;;7.36;61.69
73220;BME280;61434;43.538;-5.688;2023-02-10T07:53:17;103534.66;;;7.34;62.00
73220;BME280;61434;43.538;-5.688;2023-02-10T07:55:43;103528.16;;;7.42;61.98
73220;BME280;61434;43.538;-5.688;2023-02-10T07:58:09;103532.97;;;7.30;62.76
73220;BME280;61434;43.538;-5.688;2023-02-10T08:00:35;103527.50;;;7.00;63.60
73220;BME280;61434;43.538;-5.688;2023-02-10T08:03:01;103529.84;;;7.46;62.59
73220;BME280;61434;43.538;-5.688;2023-02-10T08:05:27;103517.81;;;6.94;63.65
73220;BME280;61434;43.538;-5.688;2023-02-10T08:07:54;103525.94;;;7.26;62.52
73220;BME280;61434;43.538;-5.688;2023-02-10T08:10:20;103530.94;;;7.39;62.29
73220;BME280;61434;43.538;-5.688;2023-02-10T08:12:45;103535.97;;;7.19;62.67
73220;BME280;61434;43.538;-5.688;2023-02-10T08:15:12;103526.38;;;7.74;61.50
73220;BME280;61434;43.538;-5.688;2023-02-10T08:17:37;103528.47;;;7.95;59.76
73220;BME280;61434;43.538;-5.688;2023-02-10T08:20:05;103532.19;;;7.59;60.93
73220;BME280;61434;43.538;-5.688;2023-02-10T08:22:31;103525.84;;;7.61;61.04
73220;BME280;61434;43.538;-5.688;2023-02-10T08:24:56;103533.41;;;7.47;61.30
73220;BME280;61434;43.538;-5.688;2023-02-10T08:27:22;103540.38;;;7.54;61.61
73220;BME280;61434;43.538;-5.688;2023-02-10T08:29:47;103527.41;;;7.70;61.58
73220;BME280;61434;43.538;-5.688;2023-02-10T08:32:13;103521.56;;;7.87;60.32
73220;BME280;61434;43.538;-5.688;2023-02-10T08:34:45;103533.16;;;7.87;60.56
73220;BME280;61434;43.538;-5.688;2023-02-10T08:37:11;103526.81;;;7.90;60.58
73220;BME280;61434;43.538;-5.688;2023-02-10T08:39:36;103524.38;;;7.82;60.58
73220;BME280;61434;43.538;-5.688;2023-02-10T08:42:01;103527.00;;;7.84;61.76
73220;BME280;61434;43.538;-5.688;2023-02-10T08:44:27;103527.34;;;8.03;60.53
73220;BME280;61434;43.538;-5.688;2023-02-10T08:46:53;103525.22;;;8.14;60.68
73220;BME280;61434;43.538;-5.688;2023-02-10T08:49:18;103536.75;;;8.17;59.94
73220;BME280;61434;43.538;-5.688;2023-02-10T08:51:44;103536.19;;;8.36;59.21
73220;BME280;61434;43.538;-5.688;2023-02-10T08:54:09;103529.78;;;8.41;59.10
73220;BME280;61434;43.538;-5.688;2023-02-10T08:56:35;103524.31;;;8.72;58.85
73220;BME280;61434;43.538;-5.688;2023-02-10T08:59:02;103529.13;;;8.61;58.84
73220;BME280;61434;43.538;-5.688;2023-02-10T09:01:28;103520.69;;;8.73;58.55
73220;BME280;61434;43.538;-5.688;2023-02-10T09:03:54;103523.69;;;8.91;57.91
73220;BME280;61434;43.538;-5.688;2023-02-10T09:06:26;103527.28;;;8.91;58.23
73220;BME280;61434;43.538;-5.688;2023-02-10T09:08:52;103523.97;;;8.83;57.88
73220;BME280;61434;43.538;-5.688;2023-02-10T09:11:19;103518.88;;;9.00;57.00
73220;BME280;61434;43.538;-5.688;2023-02-10T09:13:47;103522.28;;;9.32;56.95
73220;BME280;61434;43.538;-5.688;2023-02-10T09:16:12;103522.81;;;9.42;56.32
73220;BME280;61434;43.538;-5.688;2023-02-10T09:18:38;103518.72;;;9.05;57.69
73220;BME280;61434;43.538;-5.688;2023-02-10T09:21:03;103513.50;;;9.27;56.73
73220;BME280;61434;43.538;-5.688;2023-02-10T09:23:29;103518.22;;;9.20;57.50
73220;BME280;61434;43.538;-5.688;2023-02-10T09:25:56;103525.13;;;9.28;56.88
73220;BME280;61434;43.538;-5.688;2023-02-10T09:28:22;103512.22;;;9.62;56.14
73220;BME280;61434;43.538;-5.688;2023-02-10T09:30:47;61621.03;;;-144.32;100.00
73220;BME280;61434;43.538;-5.688;2023-02-10T09:33:13;61621.03;;;-144.32;100.00
73220;BME280;61434;43.538;-5.688;2023-02-10T09:35:39;61621.03;;;-144.32;100.00
73220;BME280;61434;43.538;-5.688;2023-02-10T09:38:06;103516.84;;;9.59;56.80
73220;BME280;61434;43.538;-5.688;2023-02-10T09:40:40;61621.03;;;-144.32;100.00
73220;BME280;61434;43.538;-5.688;2023-02-10T09:46:15;61621.03;;;-144.32;100.00
73220;BME280;61434;43.538;-5.688;2023-02-10T09:48:48;61621.03;;;-144.32;100.00
73220;BME280;61434;43.538;-5.688;2023-02-10T09:53:49;61621.03;;;-144.32;100.00
73220;BME280;61434;43.538;-5.688;2023-02-10T09:56:19;61621.03;;;-144.32;100.00
73220;BME280;61434;43.538;-5.688;2023-02-10T09:58:49;61621.03;;;-144.32;100.00
73220;BME280;61434;43.538;-5.688;2023-02-10T10:06:33;61621.03;;;-144.32;100.00
73220;BME280;61434;43.538;-5.688;2023-02-10T10:09:41;61621.03;;;-144.32;100.00
73220;BME280;61434;43.538;-5.688;2023-02-10T10:12:15;61621.03;;;-144.32;100.00
73220;BME280;61434;43.538;-5.688;2023-02-10T10:14:41;61621.03;;;-144.32;100.00
73220;BME280;61434;43.538;-5.688;2023-02-10T10:17:32;61621.03;;;-144.32;100.00
73220;BME280;61434;43.538;-5.688;2023-02-10T10:20:28;61621.03;;;-144.32;100.00
73220;BME280;61434;43.538;-5.688;2023-02-10T10:23:18;61621.03;;;-144.32;100.00
73220;BME280;61434;43.538;-5.688;2023-02-10T10:31:29;61621.03;;;-144.32;100.00
73220;BME280;61434;43.538;-5.688;2023-02-10T10:34:03;61621.03;;;-144.32;100.00
73220;BME280;61434;43.538;-5.688;2023-02-10T10:36:42;61621.03;;;-144.32;100.00
73220;BME280;61434;43.538;-5.688;2023-02-10T10:39:33;61621.03;;;-144.32;100.00
73220;BME280;61434;43.538;-5.688;2023-02-10T10:44:43;61621.03;;;-144.32;100.00
73220;BME280;61434;43.538;-5.688;2023-02-10T10:47:15;61621.03;;;-144.32;100.00
73220;BME280;61434;43.538;-5.688;2023-02-10T10:49:43;61621.03;;;-144.32;100.00
73220;BME280;61434;43.538;-5.688;2023-02-10T10:52:28;61621.03;;;-144.32;100.00
73220;BME280;61434;43.538;-5.688;2023-02-10T10:54:57;61621.03;;;-144.32;100.00
73220;BME280;61434;43.538;-5.688;2023-02-10T10:57:24;61621.03;;;-144.32;100.00
73220;BME280;61434;43.538;-5.688;2023-02-10T10:59:54;61621.03;;;-144.32;100.00
73220;BME280;61434;43.538;-5.688;2023-02-10T11:02:23;61621.03;;;-144.32;100.00
73220;BME280;61434;43.538;-5.688;2023-02-10T11:05:04;61621.03;;;-144.32;100.00
73220;BME280;61434;43.538;-5.688;2023-02-10T11:07:32;61621.03;;;-144.32;100.00
73220;BME280;61434;43.538;-5.688;2023-02-10T11:09:59;61621.03;;;-144.32;100.00
73220;BME280;61434;43.538;-5.688;2023-02-10T11:12:32;61621.03;;;-144.32;100.00
73220;BME280;61434;43.538;-5.688;2023-02-10T11:14:59;61621.03;;;-144.32;100.00
73220;BME280;61434;43.538;-5.688;2023-02-10T11:17:41;61621.03;;;-144.32;100.00
73220;BME280;61434;43.538;-5.688;2023-02-10T11:22:39;61621.03;;;-144.32;100.00
73220;BME280;61434;43.538;-5.688;2023-02-10T11:27:56;61621.03;;;-144.32;100.00
73220;BME280;61434;43.538;-5.688;2023-02-10T11:30:37;61621.03;;;-144.32;100.00
73220;BME280;61434;43.538;-5.688;2023-02-10T11:33:04;61621.03;;;-144.32;100.00
73220;BME280;61434;43.538;-5.688;2023-02-10T11:35:32;61621.03;;;-144.32;100.00
73220;BME280;61434;43.538;-5.688;2023-02-10T11:38:18;61621.03;;;-144.32;100.00
73220;BME280;61434;43.538;-5.688;2023-02-10T11:43:14;61621.03;;;-144.32;100.00
73220;BME280;61434;43.538;-5.688;2023-02-10T11:45:53;61621.03;;;-144.32;100.00
73220;BME280;61434;43.538;-5.688;2023-02-10T11:48:24;61621.03;;;-144.32;100.00
73220;BME280;61434;43.538;-5.688;2023-02-10T11:51:13;61621.03;;;-144.32;100.00
73220;BME280;61434;43.538;-5.688;2023-02-10T11:53:42;61621.03;;;-144.32;100.00
73220;BME280;61434;43.538;-5.688;2023-02-10T11:59:04;61621.03;;;-144.32;100.00
73220;BME280;61434;43.538;-5.688;2023-02-10T12:06:51;61621.03;;;-144.32;100.00
73220;BME280;61434;43.538;-5.688;2023-02-10T12:12:00;61621.03;;;-144.32;100.00
73220;BME280;61434;43.538;-5.688;2023-02-10T12:17:45;61621.03;;;-144.32;100.00
73220;BME280;61434;43.538;-5.688;2023-02-10T12:23:18;61621.03;;;-144.32;100.00
73220;BME280;61434;43.538;-5.688;2023-02-10T12:26:29;61621.03;;;-144.32;100.00
73220;BME280;61434;43.538;-5.688;2023-02-10T12:31:56;61621.03;;;-144.32;100.00
73220;BME280;61434;43.538;-5.688;2023-02-10T12:45:35;61621.03;;;-144.32;100.00
73220;BME280;61434;43.538;-5.688;2023-02-10T12:51:27;61621.03;;;-144.32;100.00
73220;BME280;61434;43.538;-5.688;2023-02-10T12:54:00;61621.03;;;-144.32;100.00
73220;BME280;61434;43.538;-5.688;2023-02-10T12:56:35;61621.03;;;-144.32;100.00
73220;BME280;61434;43.538;-5.688;2023-02-10T12:59:13;61621.03;;;-144.32;100.00
73220;BME280;61434;43.538;-5.688;2023-02-10T13:01:48;61621.03;;;-144.32;100.00
73220;BME280;61434;43.538;-5.688;2023-02-10T13:04:23;61621.03;;;-144.32;100.00
73220;BME280;61434;43.538;-5.688;2023-02-10T13:07:17;61621.03;;;-144.32;100.00
73220;BME280;61434;43.538;-5.688;2023-02-10T13:09:57;61621.03;;;-144.32;100.00
73220;BME280;61434;43.538;-5.688;2023-02-10T13:12:27;61621.03;;;-144.32;100.00
73220;BME280;61434;43.538;-5.688;2023-02-10T13:18:04;61621.03;;;-144.32;100.00
73220;BME280;61434;43.538;-5.688;2023-02-10T13:23:29;61621.03;;;-144.32;100.00
73220;BME280;61434;43.538;-5.688;2023-02-10T13:29:01;61621.03;;;-144.32;100.00
73220;BME280;61434;43.538;-5.688;2023-02-10T13:34:34;61621.03;;;-144.32;100.00
73220;BME280;61434;43.538;-5.688;2023-02-10T13:39:38;61621.03;;;-144.32;100.00
73220;BME280;61434;43.538;-5.688;2023-02-10T13:42:15;61621.03;;;-144.32;100.00
73220;BME280;61434;43.538;-5.688;2023-02-10T13:44:43;61621.03;;;-144.32;100.00
73220;BME280;61434;43.538;-5.688;2023-02-10T13:47:13;61621.03;;;-144.32;100.00
73220;BME280;61434;43.538;-5.688;2023-02-10T13:49:55;61621.03;;;-144.32;100.00
73220;BME280;61434;43.538;-5.688;2023-02-10T13:52:25;61621.03;;;-144.32;100.00
73220;BME280;61434;43.538;-5.688;2023-02-10T13:57:32;61621.03;;;-144.32;100.00
73220;BME280;61434;43.538;-5.688;2023-02-10T14:00:25;61621.03;;;-144.32;100.00
73220;BME280;61434;43.538;-5.688;2023-02-10T14:05:37;61621.03;;;-144.32;100.00
73220;BME280;61434;43.538;-5.688;2023-02-10T14:10:58;61621.03;;;-144.32;100.00
73220;BME280;61434;43.538;-5.688;2023-02-10T14:13:27;103323.78;;;13.25;50.75
73220;BME280;61434;43.538;-5.688;2023-02-10T14:16:00;103329.06;;;13.28;51.39
73220;BME280;61434;43.538;-5.688;2023-02-10T14:18:37;103308.78;;;13.02;51.94
73220;BME280;61434;43.538;-5.688;2023-02-10T14:23:32;103307.75;;;13.22;52.03
73220;BME280;61434;43.538;-5.688;2023-02-10T14:26:02;103305.66;;;13.10;51.90
73220;BME280;61434;43.538;-5.688;2023-02-10T14:28:33;103295.72;;;13.10;51.17
73220;BME280;61434;43.538;-5.688;2023-02-10T14:31:12;103304.13;;;13.22;50.44
73220;BME280;61434;43.538;-5.688;2023-02-10T14:33:38;103296.38;;;13.31;50.07
73220;BME280;61434;43.538;-5.688;2023-02-10T14:36:17;103302.75;;;13.30;50.05
73220;BME280;61434;43.538;-5.688;2023-02-10T14:38:44;103295.72;;;13.28;50.59